Time;durP1;ratioP1;P1;durP2;ratioP2;P2;SDS_P1;SDS_P2;PMS_P1;PMS_P2;Temp;Humidity;BMP_temperature;BMP_pressure;BME280_temperature;BME280_humidity;BME280_pressure;Samples;Min_cycle;Max_cycle;Signal;HPM_P1;HPM_P2
2022/11/15 00:00:42;;;;;;;22.30;13.48;;;;;;;;;;2123769;28;20047;-43
2022/11/15 00:01:43;;;;;;;23.30;13.77;;;;;;;;;;2123643;28;20590;-44
2022/11/15 00:02:44;;;;;;;24.58;14.18;;;;;;;;;;2123992;28;20054;-43
2022/11/15 00:03:45;;;;;;;23.48;13.55;;;;;;;;;;2123817;28;20050;-43
2022/11/15 00:04:47;;;;;;;24.43;14.07;;;;;;;;;;2123787;28;20393;-43
2022/11/15 00:05:47;;;;;;;28.80;14.40;;;;;;;;;;2124134;28;20295;-45
2022/11/15 00:06:49;;;;;;;21.63;13.45;;;;;;;;;;2123717;27;20098;-46
2022/11/15 00:07:50;;;;;;;19.15;13.07;;;;;;;;;;2123956;27;20108;-45
2022/11/15 00:08:58;;;;;;;22.92;13.85;;;;;;;;;;2123774;28;20134;-47
2022/11/15 00:10:00;;;;;;;22.73;13.70;;;;;;;;;;2123876;28;20047;-46
2022/11/15 00:11:02;;;;;;;24.38;14.93;;;;;;;;;;2123819;27;20044;-46
2022/11/15 00:12:03;;;;;;;18.13;12.57;;;;;;;;;;2123630;28;20381;-45
2022/11/15 00:13:06;;;;;;;21.25;13.20;;;;;;;;;;2123740;28;20039;-46
2022/11/15 00:14:07;;;;;;;19.02;13.13;;;;;;;;;;2123976;28;20471;-45
2022/11/15 00:15:08;;;;;;;20.80;13.77;;;;;;;;;;2123733;28;20043;-47
2022/11/15 00:16:09;;;;;;;22.88;13.32;;;;;;;;;;2123997;28;20264;-45
2022/11/15 00:17:10;;;;;;;22.65;12.88;;;;;;;;;;2123763;28;20043;-45
2022/11/15 00:18:12;;;;;;;20.30;12.75;;;;;;;;;;2123705;28;20043;-45
2022/11/15 00:19:13;;;;;;;22.88;13.70;;;;;;;;;;2123812;28;20051;-46
2022/11/15 00:20:14;;;;;;;22.05;13.05;;;;;;;;;;2123679;28;20264;-45
2022/11/15 00:21:15;;;;;;;17.73;11.95;;;;;;;;;;2123682;28;20051;-45
2022/11/15 00:22:16;;;;;;;18.50;12.02;;;;;;;;;;2123808;27;20050;-47
2022/11/15 00:23:18;;;;;;;19.77;12.97;;;;;;;;;;2123813;28;20074;-45
2022/11/15 00:24:19;;;;;;;21.42;11.68;;;;;;;;;;2123764;28;20051;-45
2022/11/15 00:25:20;;;;;;;22.70;12.95;;;;;;;;;;2123892;27;20380;-46
2022/11/15 00:26:21;;;;;;;19.52;12.43;;;;;;;;;;2123324;27;20043;-46
2022/11/15 00:27:22;;;;;;;18.88;11.13;;;;;;;;;;2123686;28;20079;-45
2022/11/15 00:28:24;;;;;;;15.75;11.15;;;;;;;;;;2123755;28;20403;-45
2022/11/15 00:29:25;;;;;;;18.75;12.80;;;;;;;;;;2123620;28;20047;-46
2022/11/15 00:30:26;;;;;;;18.02;11.57;;;;;;;;;;2123594;28;20445;-45
2022/11/15 00:31:27;;;;;;;18.52;12.68;;;;;;;;;;2123569;28;20043;-46
2022/11/15 00:32:30;;;;;;;21.30;13.35;;;;;;;;;;2123701;28;20046;-45
2022/11/15 00:33:32;;;;;;;20.10;12.68;;;;;;;;;;2123847;28;20047;-44
2022/11/15 00:34:33;;;;;;;;;;;;;;;;;;2124015;28;20047;-43
2022/11/15 00:35:35;;;;;;;20.13;12.40;;;;;;;;;;2123585;27;19927;-43
2022/11/15 00:36:35;;;;;;;18.25;12.07;;;;;;;;;;2123807;27;20126;-44
2022/11/15 00:37:37;;;;;;;28.05;12.50;;;;;;;;;;2123591;27;20543;-44
2022/11/15 00:38:39;;;;;;;17.75;12.15;;;;;;;;;;2123673;28;20039;-43
2022/11/15 00:39:40;;;;;;;17.10;11.13;;;;;;;;;;2123498;28;20365;-43
2022/11/15 00:40:41;;;;;;;18.40;13.40;;;;;;;;;;2123631;28;20043;-43
2022/11/15 00:41:42;;;;;;;15.33;10.43;;;;;;;;;;2123616;27;20078;-44
2022/11/15 00:42:43;;;;;;;20.65;12.32;;;;;;;;;;2123508;28;20043;-44
2022/11/15 00:43:45;;;;;;;19.25;12.13;;;;;;;;;;2123703;28;20046;-44
2022/11/15 00:44:46;;;;;;;17.67;12.45;;;;;;;;;;2123601;27;20043;-43
2022/11/15 00:45:47;;;;;;;17.33;11.20;;;;;;;;;;2123732;27;20051;-44
2022/11/15 00:46:48;;;;;;;15.02;10.57;;;;;;;;;;2120229;28;20047;-43
2022/11/15 00:47:49;;;;;;;19.95;10.98;;;;;;;;;;2115101;28;20135;-43
2022/11/15 00:48:50;;;;;;;16.55;11.30;;;;;;;;;;2115108;28;20093;-43
2022/11/15 00:49:51;;;;;;;15.07;10.67;;;;;;;;;;2115207;28;20103;-43
2022/11/15 00:50:52;;;;;;;17.67;11.27;;;;;;;;;;2120320;28;20051;-44
2022/11/15 00:51:53;;;;;;;18.33;11.65;;;;;;;;;;2123453;27;20050;-43
2022/11/15 00:52:54;;;;;;;17.83;10.98;;;;;;;;;;2123673;27;20047;-43
2022/11/15 00:53:55;;;;;;;18.40;12.17;;;;;;;;;;2123498;28;20498;-43
2022/11/15 00:54:56;;;;;;;15.90;11.13;;;;;;;;;;2123774;28;20112;-46
2022/11/15 00:55:57;;;;;;;16.52;11.52;;;;;;;;;;2123569;27;20047;-45
2022/11/15 00:56:58;;;;;;;16.30;10.77;;;;;;;;;;2123501;28;20441;-46
2022/11/15 00:57:59;;;;;;;19.35;12.32;;;;;;;;;;2123470;28;20051;-46
2022/11/15 00:59:01;;;;;;;18.55;12.32;;;;;;;;;;2123744;28;20484;-46
2022/11/15 01:00:02;;;;;;;16.25;11.65;;;;;;;;;;2123542;28;20051;-45
2022/11/15 01:01:07;;;;;;;18.98;11.35;;;;;;;;;;2123656;27;20047;-45
2022/11/15 01:02:09;;;;;;;16.67;10.82;;;;;;;;;;2123250;28;20047;-46
2022/11/15 01:03:10;;;;;;;20.15;11.50;;;;;;;;;;2123425;28;20047;-46
2022/11/15 01:04:11;;;;;;;17.75;11.43;;;;;;;;;;2123557;28;20046;-47
2022/11/15 01:05:12;;;;;;;18.40;10.88;;;;;;;;;;2123463;28;20054;-46
2022/11/15 01:06:13;;;;;;;17.30;11.90;;;;;;;;;;2123561;28;20074;-45
2022/11/15 01:07:14;;;;;;;16.95;11.00;;;;;;;;;;2123337;28;20043;-46
2022/11/15 01:08:16;;;;;;;21.80;12.93;;;;;;;;;;2123421;28;20058;-45
2022/11/15 01:09:17;;;;;;;;;;;;;;;;;;2123850;28;20283;-45
2022/11/15 01:10:18;;;;;;;17.67;11.48;;;;;;;;;;2123509;27;19919;-45
2022/11/15 01:11:19;;;;;;;17.65;11.80;;;;;;;;;;2123328;28;20484;-45
2022/11/15 01:12:20;;;;;;;15.60;11.30;;;;;;;;;;2123410;28;20092;-45
2022/11/15 01:13:21;;;;;;;21.02;11.40;;;;;;;;;;2123485;28;20047;-45
2022/11/15 01:14:23;;;;;;;19.33;11.38;;;;;;;;;;2123329;28;20043;-46
2022/11/15 01:15:26;;;;;;;17.30;11.75;;;;;;;;;;2123331;28;20070;-45
2022/11/15 01:16:27;;;;;;;18.20;11.63;;;;;;;;;;2123303;28;20035;-45
2022/11/15 01:17:28;;;;;;;17.38;10.18;;;;;;;;;;2123285;28;20480;-45
2022/11/15 01:18:29;;;;;;;16.00;10.47;;;;;;;;;;2123376;28;20047;-45
2022/11/15 01:19:30;;;;;;;17.63;11.85;;;;;;;;;;2123338;28;20407;-45
2022/11/15 01:20:31;;;;;;;18.38;12.10;;;;;;;;;;2123378;28;20039;-45
2022/11/15 01:21:32;;;;;;;19.15;11.55;;;;;;;;;;2123365;28;20043;-45
2022/11/15 01:22:34;;;;;;;17.98;9.10;;;;;;;;;;2123330;28;20039;-44
2022/11/15 01:23:35;;;;;;;16.65;11.43;;;;;;;;;;2123251;28;20047;-46
2022/11/15 01:24:36;;;;;;;18.20;11.32;;;;;;;;;;2123360;28;20039;-44
2022/11/15 01:25:37;;;;;;;17.42;11.10;;;;;;;;;;2123436;28;20484;-45
2022/11/15 01:26:38;;;;;;;15.67;11.07;;;;;;;;;;2123377;27;20046;-46
2022/11/15 01:27:39;;;;;;;15.82;11.05;;;;;;;;;;2123141;28;20736;-45
2022/11/15 01:28:41;;;;;;;16.80;10.40;;;;;;;;;;2123248;28;20047;-45
2022/11/15 01:29:43;;;;;;;16.05;9.77;;;;;;;;;;2123260;28;20039;-45
2022/11/15 01:30:44;;;;;;;16.55;10.02;;;;;;;;;;2123403;27;20043;-46
2022/11/15 01:31:45;;;;;;;15.45;10.77;;;;;;;;;;2123168;28;20605;-46
2022/11/15 01:32:46;;;;;;;16.13;10.85;;;;;;;;;;2123303;28;20047;-46
2022/11/15 01:33:48;;;;;;;13.65;10.80;;;;;;;;;;2123434;28;20438;-43
2022/11/15 01:34:49;;;;;;;18.80;10.38;;;;;;;;;;2123430;27;20058;-43
2022/11/15 01:35:50;;;;;;;17.48;11.05;;;;;;;;;;2123370;28;20099;-43
2022/11/15 01:36:51;;;;;;;19.50;10.70;;;;;;;;;;2123206;28;20450;-42
2022/11/15 01:37:52;;;;;;;17.15;10.18;;;;;;;;;;2122790;27;20043;-43
2022/11/15 01:38:53;;;;;;;15.10;8.77;;;;;;;;;;2122529;28;20043;-43
2022/11/15 01:39:54;;;;;;;16.05;10.32;;;;;;;;;;2123281;28;20047;-42
2022/11/15 01:40:56;;;;;;;16.02;10.57;;;;;;;;;;2123286;28;20506;-43
2022/11/15 01:41:57;;;;;;;16.45;10.07;;;;;;;;;;2123244;28;20055;-43
2022/11/15 01:42:58;;;;;;;14.02;8.60;;;;;;;;;;2123099;28;20046;-43
2022/11/15 01:44:14;;;;;;;16.43;10.87;;;;;;;;;;2123158;28;20054;-43
2022/11/15 01:45:16;;;;;;;17.88;11.02;;;;;;;;;;2123166;28;20995;-43
2022/11/15 01:46:25;;;;;;;17.85;11.45;;;;;;;;;;2123296;27;20054;-43
2022/11/15 01:47:28;;;;;;;18.38;11.70;;;;;;;;;;2122690;28;20273;-43
2022/11/15 01:48:32;;;;;;;15.80;10.70;;;;;;;;;;2123241;28;20043;-43
2022/11/15 01:49:35;;;;;;;17.48;11.38;;;;;;;;;;2123116;28;20039;-43
2022/11/15 01:50:36;;;;;;;19.17;12.02;;;;;;;;;;2123050;28;20042;-43
2022/11/15 01:51:37;;;;;;;18.55;11.43;;;;;;;;;;2123258;28;20047;-43
2022/11/15 01:52:39;;;;;;;17.52;11.48;;;;;;;;;;2123259;27;20095;-43
2022/11/15 01:53:41;;;;;;;18.58;12.30;;;;;;;;;;2123231;27;20437;-43
2022/11/15 01:54:43;;;;;;;15.80;10.55;;;;;;;;;;2123104;28;20035;-43
2022/11/15 01:55:44;;;;;;;17.85;11.93;;;;;;;;;;2123102;28;20453;-43
2022/11/15 01:56:46;;;;;;;18.05;10.90;;;;;;;;;;2123187;28;20455;-43
2022/11/15 01:57:48;;;;;;;17.40;10.48;;;;;;;;;;2123172;28;20043;-43
2022/11/15 01:58:51;;;;;;;18.30;10.23;;;;;;;;;;2123017;27;20404;-43
2022/11/15 01:59:52;;;;;;;16.88;11.38;;;;;;;;;;2123051;28;20050;-43
2022/11/15 02:00:54;;;;;;;16.05;11.85;;;;;;;;;;2123115;28;20403;-43
2022/11/15 02:01:55;;;;;;;;;;;;;;;;;;2123421;28;20051;-43
2022/11/15 02:02:56;;;;;;;16.90;11.45;;;;;;;;;;2123112;27;19924;-44
2022/11/15 02:03:59;;;;;;;21.00;11.73;;;;;;;;;;2122954;28;20043;-43
2022/11/15 02:05:00;;;;;;;19.05;11.40;;;;;;;;;;2123111;28;20054;-43
2022/11/15 02:06:03;;;;;;;19.88;11.90;;;;;;;;;;2123118;28;20047;-43
2022/11/15 02:07:05;;;;;;;15.50;11.10;;;;;;;;;;2122887;28;20051;-43
2022/11/15 02:08:06;;;;;;;18.38;11.27;;;;;;;;;;2123082;27;20137;-43
2022/11/15 02:09:07;;;;;;;16.77;11.13;;;;;;;;;;2122961;28;20047;-43
2022/11/15 02:10:09;;;;;;;18.13;10.82;;;;;;;;;;2122999;28;20286;-43
2022/11/15 02:11:10;;;;;;;21.13;12.35;;;;;;;;;;2123084;28;20646;-43
2022/11/15 02:12:13;;;;;;;16.98;11.23;;;;;;;;;;2123280;28;20046;-43
2022/11/15 02:13:15;;;;;;;18.35;11.55;;;;;;;;;;2123219;28;20062;-45
2022/11/15 02:14:18;;;;;;;19.75;12.45;;;;;;;;;;2123060;28;20051;-45
2022/11/15 02:15:19;;;;;;;22.13;12.25;;;;;;;;;;2123066;28;20054;-45
2022/11/15 02:16:32;;;;;;;16.80;11.32;;;;;;;;;;2122944;28;20096;-45
2022/11/15 02:17:43;;;;;;;17.50;10.68;;;;;;;;;;2123291;27;20046;-43
2022/11/15 02:18:46;;;;;;;15.77;10.88;;;;;;;;;;2123050;28;20043;-43
2022/11/15 02:20:00;;;;;;;17.33;11.05;;;;;;;;;;2123071;28;20047;-43
2022/11/15 02:21:06;;;;;;;15.60;10.48;;;;;;;;;;2122969;28;20442;-43
2022/11/15 02:22:13;;;;;;;14.57;9.85;;;;;;;;;;2122953;27;20047;-43
2022/11/15 02:23:32;;;;;;;13.15;10.15;;;;;;;;;;2123009;28;20051;-43
2022/11/15 02:24:49;;;;;;;15.32;10.40;;;;;;;;;;2088305;28;20049;-43
2022/11/15 02:25:57;;;;;;;18.40;12.10;;;;;;;;;;2123009;27;20058;-43
2022/11/15 02:27:18;;;;;;;17.30;10.45;;;;;;;;;;2123406;28;20043;-43
2022/11/15 02:28:31;;;;;;;16.05;10.75;;;;;;;;;;2122784;28;20109;-43
2022/11/15 02:29:41;;;;;;;16.95;11.60;;;;;;;;;;2122900;28;20058;-43
2022/11/15 02:30:45;;;;;;;22.08;11.23;;;;;;;;;;2122882;28;20068;-43
2022/11/15 02:31:48;;;;;;;17.90;11.27;;;;;;;;;;2122988;28;20381;-43
2022/11/15 02:32:52;;;;;;;18.80;11.75;;;;;;;;;;2123034;28;20043;-43
2022/11/15 02:33:56;;;;;;;20.75;11.52;;;;;;;;;;2123303;27;20055;-45
2022/11/15 02:34:59;;;;;;;18.58;11.60;;;;;;;;;;2122919;27;20080;-45
2022/11/15 02:36:01;;;;;;;17.38;11.55;;;;;;;;;;2122899;28;20399;-45
2022/11/15 02:37:02;;;;;;;;;;;;;;;;;;2123317;28;20058;-45
2022/11/15 02:38:06;;;;;;;17.42;11.50;;;;;;;;;;2122928;27;20287;-45
2022/11/15 02:39:10;;;;;;;17.60;10.18;;;;;;;;;;2122874;28;20047;-45
2022/11/15 02:40:16;;;;;;;20.38;12.18;;;;;;;;;;2123099;28;20043;-43
2022/11/15 02:41:21;;;;;;;17.80;12.35;;;;;;;;;;2122942;28;20047;-43
2022/11/15 02:43:56;;;;;;;20.25;12.80;;;;;;;;;;2096559;28;20068;-44
2022/11/15 02:44:58;;;;;;;18.05;11.63;;;;;;;;;;2108454;28;20059;-47
2022/11/15 02:46:03;;;;;;;19.30;12.30;;;;;;;;;;2114351;28;20044;-45
2022/11/15 02:47:15;;;;;;;19.10;12.30;;;;;;;;;;2114226;28;20047;-45
2022/11/15 02:48:16;;;;;;;20.33;13.02;;;;;;;;;;2114392;28;20052;-45
2022/11/15 02:49:18;;;;;;;21.52;12.93;;;;;;;;;;2114266;28;20092;-45
2022/11/15 02:50:20;;;;;;;20.95;11.50;;;;;;;;;;2114152;28;20052;-45
2022/11/15 02:51:22;;;;;;;19.08;12.68;;;;;;;;;;2114412;28;20039;-45
2022/11/15 02:52:25;;;;;;;23.45;13.20;;;;;;;;;;2114176;28;20515;-45
2022/11/15 02:53:26;;;;;;;19.88;12.85;;;;;;;;;;2114179;28;20473;-45
2022/11/15 02:54:30;;;;;;;18.85;12.75;;;;;;;;;;2114393;28;20063;-44
2022/11/15 02:55:33;;;;;;;18.60;12.43;;;;;;;;;;2114168;28;20508;-44
2022/11/15 02:56:34;;;;;;;21.60;13.02;;;;;;;;;;2114283;28;20443;-44
2022/11/15 02:57:42;;;;;;;17.63;12.07;;;;;;;;;;2114419;28;20044;-45
2022/11/15 02:58:57;;;;;;;19.00;13.13;;;;;;;;;;2114382;28;20303;-45
2022/11/15 03:00:03;;;;;;;18.27;12.10;;;;;;;;;;2114217;28;20044;-44
2022/11/15 03:01:11;;;;;;;20.85;12.50;;;;;;;;;;2114335;28;20055;-44
2022/11/15 03:02:18;;;;;;;18.63;11.93;;;;;;;;;;2114033;28;20386;-44
2022/11/15 03:03:29;;;;;;;18.75;12.18;;;;;;;;;;2114388;28;20051;-45
2022/11/15 03:04:36;;;;;;;16.30;12.05;;;;;;;;;;2114256;28;20044;-45
2022/11/15 03:05:38;;;;;;;19.42;13.65;;;;;;;;;;2114217;28;20484;-45
2022/11/15 03:06:42;;;;;;;20.10;13.65;;;;;;;;;;2114260;28;20262;-46
2022/11/15 03:07:46;;;;;;;20.52;12.05;;;;;;;;;;2114519;28;20043;-44
2022/11/15 03:08:53;;;;;;;20.17;13.35;;;;;;;;;;2114282;28;20077;-45
2022/11/15 03:09:57;;;;;;;21.60;13.73;;;;;;;;;;2114370;28;20094;-45
2022/11/15 03:11:03;;;;;;;19.85;13.38;;;;;;;;;;2114184;28;20059;-46
2022/11/15 03:12:07;;;;;;;21.05;12.43;;;;;;;;;;2114390;28;20549;-44
2022/11/15 03:13:13;;;;;;;18.70;12.30;;;;;;;;;;2114159;28;20044;-43
2022/11/15 03:14:20;;;;;;;19.67;13.20;;;;;;;;;;2114497;28;20055;-42
2022/11/15 03:15:23;;;;;;;20.25;13.60;;;;;;;;;;2114336;28;20043;-44
2022/11/15 03:16:28;;;;;;;19.95;13.38;;;;;;;;;;2114280;28;20048;-44
2022/11/15 03:17:30;;;;;;;21.95;13.60;;;;;;;;;;2114103;28;20093;-44
2022/11/15 03:18:31;;;;;;;;;;;;;;;;;;2114623;28;20039;-44
2022/11/15 03:19:35;;;;;;;21.75;14.25;;;;;;;;;;2114205;28;20004;-45
2022/11/15 03:20:37;;;;;;;23.42;13.30;;;;;;;;;;2114229;28;20051;-45
2022/11/15 03:21:39;;;;;;;21.45;13.57;;;;;;;;;;2114135;28;20476;-45
2022/11/15 03:22:43;;;;;;;19.80;12.98;;;;;;;;;;2113884;28;20401;-45
2022/11/15 03:23:45;;;;;;;20.45;13.75;;;;;;;;;;2114223;28;20047;-45
2022/11/15 03:24:48;;;;;;;20.40;13.57;;;;;;;;;;2114089;28;20047;-45
2022/11/15 03:25:50;;;;;;;19.48;13.27;;;;;;;;;;2114373;28;20047;-46
2022/11/15 03:26:53;;;;;;;20.35;14.07;;;;;;;;;;2114007;28;20461;-45
2022/11/15 03:27:57;;;;;;;21.48;14.27;;;;;;;;;;2114189;28;20043;-46
2022/11/15 03:29:01;;;;;;;20.60;13.57;;;;;;;;;;2114060;28;20044;-45
2022/11/15 03:30:04;;;;;;;18.75;12.82;;;;;;;;;;2114413;28;20052;-46
2022/11/15 03:31:46;;;;;;;22.88;13.60;;;;;;;;;;2114017;28;20047;-45
2022/11/15 03:32:29;;;;;;;21.17;14.00;;;;;;;;;;2114264;28;20062;-45
2022/11/15 03:33:31;;;;;;;21.27;13.82;;;;;;;;;;2114068;28;20131;-45
2022/11/15 03:34:35;;;;;;;18.45;13.50;;;;;;;;;;2114029;28;20400;-44
2022/11/15 03:35:39;;;;;;;20.67;13.73;;;;;;;;;;2114062;28;20485;-44
2022/11/15 03:36:40;;;;;;;23.77;14.40;;;;;;;;;;2114053;28;20191;-46
2022/11/15 03:37:44;;;;;;;25.90;14.65;;;;;;;;;;2114069;28;20047;-45
2022/11/15 03:38:45;;;;;;;23.08;13.45;;;;;;;;;;2114187;28;20043;-46
2022/11/15 03:39:46;;;;;;;23.15;15.13;;;;;;;;;;2120654;28;20047;-45
2022/11/15 03:40:51;;;;;;;23.65;15.10;;;;;;;;;;2122715;28;20039;-45
2022/11/15 03:41:57;;;;;;;23.60;15.82;;;;;;;;;;2122648;28;20047;-45
2022/11/15 03:43:00;;;;;;;24.42;15.40;;;;;;;;;;2122736;28;20392;-46
2022/11/15 03:44:05;;;;;;;21.70;14.73;;;;;;;;;;2122437;28;20492;-48
2022/11/15 03:45:10;;;;;;;26.35;14.77;;;;;;;;;;2122453;28;20043;-45
2022/11/15 03:46:14;;;;;;;22.65;14.68;;;;;;;;;;2122642;27;20055;-46
2022/11/15 03:47:17;;;;;;;20.98;14.93;;;;;;;;;;2115341;28;20036;-44
2022/11/15 03:48:21;;;;;;;21.17;14.35;;;;;;;;;;2114279;28;20101;-43
2022/11/15 03:49:24;;;;;;;30.25;17.10;;;;;;;;;;2113907;28;20043;-43
2022/11/15 03:50:26;;;;;;;24.13;15.13;;;;;;;;;;2114148;28;20051;-43
2022/11/15 03:51:27;;;;;;;27.85;16.52;;;;;;;;;;2113968;28;20052;-44
2022/11/15 03:52:31;;;;;;;28.02;16.58;;;;;;;;;;2114410;28;20138;-45
2022/11/15 03:53:32;;;;;;;27.48;16.35;;;;;;;;;;2113971;28;20048;-46
2022/11/15 03:54:34;;;;;;;27.00;17.13;;;;;;;;;;2113981;28;20481;-45
2022/11/15 03:55:35;;;;;;;29.52;15.07;;;;;;;;;;2113855;28;20408;-45
2022/11/15 03:56:36;;;;;;;27.37;16.67;;;;;;;;;;2114082;28;20048;-45
2022/11/15 03:57:37;;;;;;;31.50;17.73;;;;;;;;;;2114080;28;20280;-46
2022/11/15 03:58:38;;;;;;;31.95;16.73;;;;;;;;;;2113855;28;20503;-45
2022/11/15 03:59:40;;;;;;;27.92;15.93;;;;;;;;;;2114028;28;20040;-45
2022/11/15 04:00:41;;;;;;;32.57;17.73;;;;;;;;;;2113949;28;20438;-45
2022/11/15 04:01:42;;;;;;;27.05;16.38;;;;;;;;;;2114242;28;20280;-47
2022/11/15 04:02:43;;;;;;;30.42;16.33;;;;;;;;;;2115346;28;20048;-45
2022/11/15 04:03:45;;;;;;;25.67;15.70;;;;;;;;;;2115449;28;20051;-46
2022/11/15 04:04:46;;;;;;;31.08;16.15;;;;;;;;;;2115264;28;20515;-45
2022/11/15 04:05:47;;;;;;;32.50;17.95;;;;;;;;;;2115483;28;20096;-45
2022/11/15 04:06:48;;;;;;;27.75;16.38;;;;;;;;;;2115365;28;20477;-46
2022/11/15 04:07:49;;;;;;;26.05;15.38;;;;;;;;;;2115453;28;20048;-48
2022/11/15 04:08:51;;;;;;;30.13;17.30;;;;;;;;;;2115391;28;20048;-46
2022/11/15 04:10:03;;;;;;;33.15;17.20;;;;;;;;;;2115250;28;20517;-46
2022/11/15 04:11:05;;;;;;;29.70;17.27;;;;;;;;;;2115403;28;20044;-46
2022/11/15 04:12:06;;;;;;;29.35;18.27;;;;;;;;;;2115204;28;20047;-46
2022/11/15 04:13:07;;;;;;;33.13;17.73;;;;;;;;;;2115294;28;20185;-45
2022/11/15 04:14:08;;;;;;;30.63;17.05;;;;;;;;;;2115236;28;20381;-45
2022/11/15 04:15:11;;;;;;;29.95;17.42;;;;;;;;;;2115561;28;20097;-44
2022/11/15 04:16:12;;;;;;;28.70;16.70;;;;;;;;;;2115177;28;20480;-45
2022/11/15 04:17:13;;;;;;;31.10;18.60;;;;;;;;;;2115300;28;20074;-45
2022/11/15 04:18:14;;;;;;;30.73;18.40;;;;;;;;;;2115230;28;20048;-46
2022/11/15 04:24:34;;;;;;;32.50;18.25;;;;;;;;;;2115276;28;20051;-43
2022/11/15 04:25:35;;;;;;;29.20;17.98;;;;;;;;;;2115103;28;20047;-43
2022/11/15 04:26:37;;;;;;;31.05;18.08;;;;;;;;;;2115297;28;20051;-43
2022/11/15 04:27:37;;;;;;;35.22;16.85;;;;;;;;;;2115070;28;20039;-43
2022/11/15 04:29:33;;;;;;;27.55;16.25;;;;;;;;;;2115315;28;20051;-43
2022/11/15 04:30:00;;;;;;;30.92;17.38;;;;;;;;;;2115143;28;20047;-43
2022/11/15 04:31:01;;;;;;;28.02;16.40;;;;;;;;;;2115189;28;20047;-43
2022/11/15 04:32:03;;;;;;;31.38;17.58;;;;;;;;;;2115082;28;20051;-43
2022/11/15 04:33:04;;;;;;;30.87;16.67;;;;;;;;;;2115497;28;20044;-45
2022/11/15 04:34:05;;;;;;;29.40;17.77;;;;;;;;;;2115224;28;20291;-46
2022/11/15 04:35:07;;;;;;;32.70;18.77;;;;;;;;;;2115204;28;20101;-45
2022/11/15 04:37:27;;;;;;;28.95;17.35;;;;;;;;;;2123607;28;20043;-45
2022/11/15 04:38:28;;;;;;;31.58;18.23;;;;;;;;;;2123705;28;20047;-47
2022/11/15 04:39:29;;;;;;;30.20;18.10;;;;;;;;;;2124059;28;20377;-46
2022/11/15 04:40:30;;;;;;;30.52;17.70;;;;;;;;;;2123611;28;20043;-46
2022/11/15 04:41:32;;;;;;;30.45;17.77;;;;;;;;;;2124017;27;20047;-45
2022/11/15 04:42:32;;;;;;;29.52;17.15;;;;;;;;;;2123779;28;20040;-43
2022/11/15 04:43:34;;;;;;;31.40;18.33;;;;;;;;;;2123468;28;20075;-43
2022/11/15 04:44:35;;;;;;;28.15;17.67;;;;;;;;;;2123876;27;20051;-43
2022/11/15 04:45:36;;;;;;;33.40;18.17;;;;;;;;;;2123887;28;20506;-43
2022/11/15 04:46:37;;;;;;;32.50;18.13;;;;;;;;;;2121762;28;20043;-43
2022/11/15 04:47:38;;;;;;;29.00;16.57;;;;;;;;;;2114983;28;20050;-43
2022/11/15 04:48:39;;;;;;;32.60;16.92;;;;;;;;;;2115231;28;20075;-43
2022/11/15 04:49:40;;;;;;;35.38;18.80;;;;;;;;;;2115091;28;20073;-43
2022/11/15 04:50:42;;;;;;;30.13;17.83;;;;;;;;;;2115241;28;20040;-44
2022/11/15 04:51:43;;;;;;;;;;;;;;;;;;2115416;28;20377;-43
2022/11/15 04:52:50;;;;;;;34.85;17.27;;;;;;;;;;2115125;28;19926;-43
2022/11/15 04:53:51;;;;;;;33.55;18.35;;;;;;;;;;2115181;28;20039;-43
2022/11/15 04:54:52;;;;;;;32.50;18.93;;;;;;;;;;2115057;28;20523;-43
2022/11/15 04:55:53;;;;;;;31.70;18.17;;;;;;;;;;2115224;28;20527;-46
2022/11/15 04:56:54;;;;;;;38.55;19.77;;;;;;;;;;2114961;28;20113;-45
2022/11/15 04:57:59;;;;;;;36.97;19.70;;;;;;;;;;2115156;28;20075;-45
2022/11/15 04:59:00;;;;;;;31.60;18.63;;;;;;;;;;2115103;28;20056;-43
2022/11/15 05:00:02;;;;;;;31.97;18.07;;;;;;;;;;2115188;28;20134;-46
2022/11/15 05:01:06;;;;;;;32.25;18.10;;;;;;;;;;2115239;28;20051;-43
2022/11/15 05:02:07;;;;;;;31.10;17.40;;;;;;;;;;2115103;28;20523;-43
2022/11/15 05:04:28;;;;;;;33.20;17.85;;;;;;;;;;2115282;28;20040;-46
2022/11/15 05:05:29;;;;;;;34.73;18.73;;;;;;;;;;2114903;28;20082;-45
2022/11/15 05:06:31;;;;;;;40.40;20.00;;;;;;;;;;2115111;28;20040;-45
2022/11/15 05:07:32;;;;;;;;;;;;;;;;;;2115372;28;20043;-45
2022/11/15 05:08:33;;;;;;;31.98;17.52;;;;;;;;;;2114947;28;20455;-44
2022/11/15 05:09:34;;;;;;;29.92;15.98;;;;;;;;;;2115343;28;20073;-46
2022/11/15 05:10:35;;;;;;;40.37;19.77;;;;;;;;;;2115103;28;20476;-45
2022/11/15 05:11:36;;;;;;;35.15;19.17;;;;;;;;;;2115099;28;20059;-45
2022/11/15 05:12:37;;;;;;;35.80;19.70;;;;;;;;;;2114691;28;20077;-46
2022/11/15 05:13:38;;;;;;;34.75;18.92;;;;;;;;;;2115106;28;20044;-45
2022/11/15 05:14:39;;;;;;;35.35;18.80;;;;;;;;;;2114934;28;20048;-45
2022/11/15 05:15:40;;;;;;;37.00;17.73;;;;;;;;;;2114982;28;20040;-46
2022/11/15 05:16:42;;;;;;;41.17;19.73;;;;;;;;;;2115312;28;20043;-43
2022/11/15 05:17:42;;;;;;;41.30;20.00;;;;;;;;;;2115039;28;20036;-43
2022/11/15 05:18:44;;;;;;;38.80;20.58;;;;;;;;;;2115001;28;20078;-43
2022/11/15 05:19:45;;;;;;;35.88;19.58;;;;;;;;;;2115133;28;20047;-43
2022/11/15 05:20:46;;;;;;;35.97;17.93;;;;;;;;;;2114920;28;20087;-43
2022/11/15 05:21:47;;;;;;;44.22;20.25;;;;;;;;;;2114726;28;20394;-41
2022/11/15 05:22:49;;;;;;;36.58;19.20;;;;;;;;;;2114788;28;20116;-42
2022/11/15 05:23:49;;;;;;;39.03;20.25;;;;;;;;;;2114853;28;20051;-42
2022/11/15 05:24:51;;;;;;;37.33;19.17;;;;;;;;;;2115028;28;20134;-42
2022/11/15 05:25:51;;;;;;;38.85;19.17;;;;;;;;;;2115303;28;20047;-42
2022/11/15 05:26:53;;;;;;;37.08;20.38;;;;;;;;;;2114899;28;20507;-42
2022/11/15 05:27:54;;;;;;;34.08;18.83;;;;;;;;;;2114909;28;20055;-42
2022/11/15 05:28:55;;;;;;;37.85;20.17;;;;;;;;;;2114810;28;20134;-42
2022/11/15 05:29:56;;;;;;;39.25;19.15;;;;;;;;;;2114926;28;20059;-42
2022/11/15 05:31:01;;;;;;;40.38;19.48;;;;;;;;;;2115070;28;20086;-43
2022/11/15 05:32:03;;;;;;;37.35;18.77;;;;;;;;;;2119251;28;20548;-42
2022/11/15 05:33:04;;;;;;;38.97;19.65;;;;;;;;;;2122901;28;20496;-42
2022/11/15 05:34:05;;;;;;;43.25;20.30;;;;;;;;;;2123384;27;20051;-42
2022/11/15 05:35:10;;;;;;;40.22;19.42;;;;;;;;;;2123177;27;20051;-42
2022/11/15 05:36:14;;;;;;;38.50;18.42;;;;;;;;;;2123333;27;20051;-42
2022/11/15 05:37:16;;;;;;;36.22;18.65;;;;;;;;;;2123106;27;20047;-42
2022/11/15 05:38:17;;;;;;;37.03;18.40;;;;;;;;;;2123514;27;20119;-42
2022/11/15 05:39:18;;;;;;;35.57;19.53;;;;;;;;;;2123208;27;20096;-42
2022/11/15 05:40:19;;;;;;;34.95;19.88;;;;;;;;;;2123285;27;20047;-43
2022/11/15 05:41:24;;;;;;;34.47;17.92;;;;;;;;;;2123166;27;20114;-43
2022/11/15 05:42:26;;;;;;;39.47;19.33;;;;;;;;;;2122976;27;20423;-43
2022/11/15 05:43:29;;;;;;;36.55;18.45;;;;;;;;;;2123295;27;20039;-43
2022/11/15 05:44:31;;;;;;;37.20;20.10;;;;;;;;;;2123372;27;20081;-43
2022/11/15 05:45:33;;;;;;;37.38;19.58;;;;;;;;;;2123161;28;20047;-43
2022/11/15 05:46:34;;;;;;;36.92;19.73;;;;;;;;;;2122965;27;20441;-42
2022/11/15 05:47:36;;;;;;;36.30;18.95;;;;;;;;;;2123147;28;20050;-42
2022/11/15 05:48:37;;;;;;;;;;;;;;;;;;2123632;27;20050;-42
2022/11/15 05:49:40;;;;;;;34.85;17.67;;;;;;;;;;2123341;27;19919;-45
2022/11/15 05:50:42;;;;;;;35.47;18.83;;;;;;;;;;2122999;28;20491;-45
2022/11/15 05:51:44;;;;;;;37.00;18.52;;;;;;;;;;2123186;27;20099;-45
2022/11/15 05:52:46;;;;;;;40.70;19.98;;;;;;;;;;2123148;28;20108;-45
2022/11/15 05:53:47;;;;;;;;;;;;;;;;;;2123652;28;20054;-45
2022/11/15 05:54:49;;;;;;;39.85;17.80;;;;;;;;;;2123202;27;19962;-43
2022/11/15 05:55:50;;;;;;;43.60;20.48;;;;;;;;;;2123174;28;20054;-42
2022/11/15 05:56:51;;;;;;;35.90;20.00;;;;;;;;;;2123038;27;20047;-42
2022/11/15 05:57:52;;;;;;;40.13;20.75;;;;;;;;;;2123066;27;20441;-43
2022/11/15 05:58:55;;;;;;;37.13;20.20;;;;;;;;;;2123021;28;20055;-43
2022/11/15 06:00:00;;;;;;;38.63;20.55;;;;;;;;;;2122960;28;20540;-42
2022/11/15 06:01:02;;;;;;;37.53;19.50;;;;;;;;;;2123188;28;20100;-42
2022/11/15 06:02:02;;;;;;;36.15;19.30;;;;;;;;;;2122825;28;20050;-43
2022/11/15 06:03:04;;;;;;;36.07;18.90;;;;;;;;;;2123052;28;20130;-43
2022/11/15 06:04:05;;;;;;;35.78;19.73;;;;;;;;;;2123003;28;20104;-43
2022/11/15 06:05:06;;;;;;;37.17;18.70;;;;;;;;;;2123173;27;20368;-43
2022/11/15 06:06:07;;;;;;;37.05;19.25;;;;;;;;;;2123008;28;20751;-42
2022/11/15 06:07:15;;;;;;;38.75;20.48;;;;;;;;;;2123252;28;20049;-43
2022/11/15 06:08:17;;;;;;;36.72;19.67;;;;;;;;;;2123027;28;20081;-43
2022/11/15 06:09:19;;;;;;;36.40;19.67;;;;;;;;;;2123238;28;20043;-43
2022/11/15 06:10:20;;;;;;;43.40;19.98;;;;;;;;;;2122980;28;20047;-43
2022/11/15 06:11:21;;;;;;;31.23;17.17;;;;;;;;;;2123122;28;20511;-43
2022/11/15 06:12:22;;;;;;;40.83;19.90;;;;;;;;;;2123087;27;20074;-43
2022/11/15 06:13:23;;;;;;;38.63;19.45;;;;;;;;;;2123186;27;20043;-46
2022/11/15 06:14:24;;;;;;;38.25;20.05;;;;;;;;;;2123117;28;20057;-44
2022/11/15 06:15:25;;;;;;;36.53;17.90;;;;;;;;;;2122977;28;20096;-45